Time;durP1;ratioP1;P1;durP2;ratioP2;P2;SDS_P1;SDS_P2;PMS_P1;PMS_P2;Temp;Humidity;BMP_temperature;BMP_pressure;BME280_temperature;BME280_humidity;BME280_pressure;Samples;Min_cycle;Max_cycle;Signal;HPM_P1;HPM_P2
2021/04/08 00:01:57;;;;;;;10.87;2.27;;;2.20;99.90;;;;;;4375865;32;20216;-63
2021/04/08 00:04:25;;;;;;;9.37;2.07;;;2.30;99.90;;;;;;4381201;32;20175;-62
2021/04/08 00:06:53;;;;;;;12.17;2.30;;;2.30;99.90;;;;;;4382260;32;20167;-60
2021/04/08 00:09:20;;;;;;;7.13;1.63;;;2.40;99.90;;;;;;4376589;32;20225;-61
2021/04/08 00:11:46;;;;;;;9.33;1.67;;;2.40;99.90;;;;;;4377349;32;20171;-62
2021/04/08 00:14:16;;;;;;;10.27;2.80;;;2.50;99.90;;;;;;4377051;32;20167;-61
2021/04/08 00:16:43;;;;;;;9.23;1.60;;;2.50;99.90;;;;;;4378182;32;20163;-61
2021/04/08 00:19:10;;;;;;;6.60;1.67;;;2.60;99.90;;;;;;4377503;32;20266;-60
2021/04/08 00:21:36;;;;;;;3.10;1.07;;;2.60;99.90;;;;;;4377149;32;20731;-60
2021/04/08 00:24:04;;;;;;;7.17;1.40;;;2.60;99.90;;;;;;4378251;32;20174;-62
2021/04/08 00:26:30;;;;;;;5.93;1.43;;;2.60;99.90;;;;;;4381398;32;20421;-61
2021/04/08 00:28:56;;;;;;;5.80;1.17;;;2.70;99.90;;;;;;4376278;32;20593;-63
2021/04/08 00:31:24;;;;;;;6.07;0.97;;;2.80;99.90;;;;;;4378111;32;20219;-64
2021/04/08 00:33:50;;;;;;;11.60;1.10;;;2.70;99.90;;;;;;4378276;32;20140;-63
2021/04/08 00:36:17;;;;;;;7.00;1.30;;;2.70;99.90;;;;;;4381398;32;20171;-63
2021/04/08 00:38:44;;;;;;;6.60;0.97;;;2.70;99.90;;;;;;4381582;32;20291;-62
2021/04/08 00:41:10;;;;;;;5.53;1.00;;;2.60;99.90;;;;;;4377728;32;20525;-62
2021/04/08 00:43:36;;;;;;;6.23;1.03;;;2.50;99.40;;;;;;4385126;32;20235;-61
2021/04/08 00:46:03;;;;;;;3.63;0.90;;;2.50;99.70;;;;;;4378647;32;20180;-60
2021/04/08 00:48:30;;;;;;;5.23;0.83;;;2.50;99.90;;;;;;4379149;32;20195;-61
2021/04/08 00:50:56;;;;;;;5.77;1.17;;;2.50;99.90;;;;;;4385612;32;20171;-62
2021/04/08 00:53:25;;;;;;;5.57;1.00;;;2.40;99.90;;;;;;4379151;32;20232;-63
2021/04/08 00:55:53;;;;;;;8.67;1.07;;;2.40;99.90;;;;;;4376753;32;20186;-60
2021/04/08 00:58:20;;;;;;;2.10;0.83;;;2.30;99.90;;;;;;4378571;32;20232;-62
2021/04/08 01:00:48;;;;;;;3.13;0.90;;;2.20;99.90;;;;;;4376527;32;20218;-64
2021/04/08 01:03:21;;;;;;;4.10;1.07;;;2.20;99.90;;;;;;4379069;32;20211;-63
2021/04/08 01:05:48;;;;;;;1.40;0.60;;;2.30;99.90;;;;;;4376858;32;20159;-60
2021/04/08 01:08:15;;;;;;;3.40;0.87;;;2.40;99.90;;;;;;4376784;32;20171;-60
2021/04/08 01:10:43;;;;;;;7.83;1.23;;;2.50;99.90;;;;;;4376783;32;20144;-60
2021/04/08 01:13:12;;;;;;;4.57;1.07;;;2.60;99.90;;;;;;4379056;32;20198;-59
2021/04/08 01:15:39;;;;;;;6.07;1.40;;;2.60;99.90;;;;;;4385270;32;20240;-60
2021/04/08 01:18:12;;;;;;;7.33;1.43;;;2.70;99.90;;;;;;4376690;32;20140;-60
2021/04/08 01:20:53;;;;;;;5.40;0.87;;;2.60;99.90;;;;;;4375945;32;20695;-61
2021/04/08 01:24:17;;;;;;;10.10;1.10;;;2.70;99.90;;;;;;4378949;32;20226;-61
2021/04/08 01:27:20;;;;;;;5.57;1.13;;;2.70;99.90;;;;;;4343415;33;20141;-61
2021/04/08 01:30:22;;;;;;;3.23;0.93;;;2.80;99.90;;;;;;4299253;33;20158;-61
2021/04/08 01:32:53;;;;;;;5.50;1.40;;;2.90;99.90;;;;;;4285839;33;20178;-62
2021/04/08 01:35:25;;;;;;;5.30;1.10;;;2.90;99.90;;;;;;4286819;33;20181;-60
2021/04/08 01:37:57;;;;;;;7.23;1.50;;;3.00;99.90;;;;;;4285789;33;20218;-60
2021/04/08 01:40:25;;;;;;;6.53;1.20;;;3.00;99.90;;;;;;4285457;33;20229;-60
2021/04/08 01:42:54;;;;;;;4.17;1.57;;;3.00;99.90;;;;;;4284810;33;20254;-60
2021/04/08 01:45:22;;;;;;;7.20;1.73;;;3.00;99.90;;;;;;4284237;33;20223;-60
2021/04/08 01:47:52;;;;;;;5.40;1.47;;;3.00;99.90;;;;;;4284735;33;20257;-60
2021/04/08 01:50:20;;;;;;;12.87;1.50;;;3.10;99.90;;;;;;4284927;33;20198;-60
2021/04/08 01:52:49;;;;;;;5.57;1.00;;;3.00;99.90;;;;;;4286757;33;20174;-60
2021/04/08 01:55:17;;;;;;;7.23;1.47;;;3.00;99.90;;;;;;4285176;33;20238;-60
2021/04/08 01:57:45;;;;;;;5.37;1.20;;;3.00;99.90;;;;;;4285398;33;20167;-61
2021/04/08 02:00:13;;;;;;;5.83;1.10;;;3.00;99.90;;;;;;4284760;33;20291;-60
2021/04/08 02:02:43;;;;;;;7.97;2.07;;;3.00;99.90;;;;;;4285292;33;20175;-59
2021/04/08 02:05:14;;;;;;;7.70;1.23;;;3.00;99.90;;;;;;4300001;33;20242;-61
2021/04/08 02:07:42;;;;;;;5.50;1.50;;;3.00;99.90;;;;;;4335350;33;20258;-61
2021/04/08 02:10:10;;;;;;;6.30;1.40;;;3.00;99.90;;;;;;4369879;32;20587;-60
2021/04/08 02:12:38;;;;;;;8.00;1.40;;;3.10;99.90;;;;;;4375821;32;20159;-60
2021/04/08 02:15:06;;;;;;;4.77;1.30;;;3.00;99.90;;;;;;4376881;32;20164;-60
2021/04/08 02:17:35;;;;;;;7.40;1.50;;;3.00;99.90;;;;;;4375436;32;20179;-60
2021/04/08 02:20:08;;;;;;;6.53;1.50;;;3.00;99.90;;;;;;4375615;32;20172;-61
2021/04/08 02:22:38;;;;;;;8.47;2.03;;;3.00;99.90;;;;;;4374897;32;20231;-60
2021/04/08 02:25:08;;;;;;;4.87;1.33;;;2.90;99.90;;;;;;4379656;32;20606;-61
2021/04/08 02:27:36;;;;;;;10.60;1.90;;;2.90;99.90;;;;;;4374358;32;20168;-60
2021/04/08 02:30:03;;;;;;;5.40;2.30;;;2.90;99.90;;;;;;4375483;32;20552;-60
2021/04/08 02:32:30;;;;;;;6.27;1.40;;;2.90;99.90;;;;;;4380432;32;20704;-60
2021/04/08 02:34:56;;;;;;;5.20;1.33;;;2.90;99.90;;;;;;4388654;32;20157;-60
2021/04/08 02:37:23;;;;;;;6.03;1.20;;;2.90;99.90;;;;;;4375449;32;20175;-60
2021/04/08 02:39:50;;;;;;;8.90;1.70;;;2.90;99.90;;;;;;4374684;32;20186;-60
2021/04/08 02:42:19;;;;;;;5.93;1.73;;;3.00;99.90;;;;;;4375089;32;20175;-61
2021/04/08 02:44:45;;;;;;;4.77;1.87;;;2.90;99.90;;;;;;4375513;32;20215;-60
2021/04/08 02:47:11;;;;;;;11.57;2.37;;;2.90;99.90;;;;;;4382971;32;20175;-61
2021/04/08 02:49:38;;;;;;;7.40;1.87;;;3.00;99.90;;;;;;4376386;32;20676;-62
2021/04/08 02:52:09;;;;;;;4.47;1.90;;;3.00;99.90;;;;;;4378862;32;20176;-61
2021/04/08 02:54:41;;;;;;;8.30;2.00;;;3.00;99.90;;;;;;4383969;32;20201;-61
2021/04/08 02:57:15;;;;;;;3.77;1.37;;;3.10;99.90;;;;;;4379757;32;20167;-60
2021/04/08 02:59:45;;;;;;;5.83;1.63;;;3.10;99.90;;;;;;4375951;32;20508;-61
2021/04/08 03:02:15;;;;;;;7.53;1.73;;;3.20;99.90;;;;;;4375561;32;20532;-61
2021/04/08 03:04:46;;;;;;;13.60;2.00;;;3.20;99.90;;;;;;4389101;32;20234;-61
2021/04/08 03:07:13;;;;;;;5.63;1.70;;;3.20;99.90;;;;;;4388688;32;20160;-61
2021/04/08 03:09:41;;;;;;;7.50;1.70;;;3.20;99.90;;;;;;4380025;32;20192;-61
2021/04/08 03:12:13;;;;;;;6.97;1.50;;;3.20;99.90;;;;;;4382965;32;20580;-61
2021/04/08 03:14:43;;;;;;;6.83;1.97;;;3.20;99.90;;;;;;4381860;32;20254;-61
2021/04/08 03:17:13;;;;;;;6.70;1.40;;;3.20;99.90;;;;;;4381654;32;20188;-60
2021/04/08 03:19:42;;;;;;;7.43;1.60;;;3.20;99.90;;;;;;4378053;32;20203;-61
2021/04/08 03:22:09;;;;;;;4.40;1.33;;;3.20;99.90;;;;;;4376277;32;20570;-60
2021/04/08 03:24:37;;;;;;;4.03;1.53;;;3.20;99.90;;;;;;4378800;32;20469;-61
2021/04/08 03:27:05;;;;;;;5.90;1.17;;;3.20;99.90;;;;;;4380006;32;20242;-61
2021/04/08 03:29:33;;;;;;;3.90;1.80;;;3.20;99.90;;;;;;4375392;32;20159;-60
2021/04/08 03:32:01;;;;;;;10.57;2.00;;;3.30;99.90;;;;;;4374987;32;20219;-61
2021/04/08 03:34:28;;;;;;;5.77;1.73;;;3.20;99.90;;;;;;4376419;32;20140;-61
2021/04/08 03:36:57;;;;;;;8.80;2.10;;;3.20;99.90;;;;;;4374414;32;20263;-60
2021/04/08 03:39:24;;;;;;;5.97;1.97;;;3.20;99.90;;;;;;4376235;32;20161;-60
2021/04/08 03:41:51;;;;;;;5.17;1.40;;;3.30;99.90;;;;;;4375610;32;20580;-60
2021/04/08 03:44:18;;;;;;;7.37;1.77;;;3.30;99.90;;;;;;4375853;32;20270;-60
2021/04/08 03:46:47;;;;;;;9.40;1.70;;;3.30;99.90;;;;;;4374952;32;20176;-61
2021/04/08 03:49:16;;;;;;;10.03;2.63;;;3.20;99.90;;;;;;4373924;32;20176;-60
2021/04/08 03:51:45;;;;;;;11.17;2.03;;;3.30;99.90;;;;;;4374041;32;20176;-61
2021/04/08 03:54:13;;;;;;;5.37;1.23;;;3.20;99.90;;;;;;4377175;32;20235;-60
2021/04/08 03:56:43;;;;;;;7.87;1.40;;;3.20;99.90;;;;;;4379543;32;20499;-60
2021/04/08 03:59:10;;;;;;;8.03;1.70;;;3.20;99.90;;;;;;4380839;32;20266;-60
2021/04/08 04:01:37;;;;;;;4.10;1.20;;;3.10;99.90;;;;;;4378013;32;20232;-61
2021/04/08 04:04:06;;;;;;;7.53;1.50;;;3.10;99.90;;;;;;4376892;32;20186;-61
2021/04/08 04:06:35;;;;;;;7.90;2.87;;;3.10;99.90;;;;;;4378232;32;20218;-61
2021/04/08 04:09:03;;;;;;;3.87;1.20;;;3.10;99.90;;;;;;4384604;32;20156;-61
2021/04/08 04:11:31;;;;;;;3.90;1.50;;;3.20;99.90;;;;;;4378453;32;20207;-61
2021/04/08 04:13:59;;;;;;;9.97;2.33;;;3.20;99.90;;;;;;4376553;32;20178;-61
2021/04/08 04:16:25;;;;;;;5.63;1.47;;;3.20;99.90;;;;;;4385949;32;20571;-60
2021/04/08 04:18:52;;;;;;;5.50;1.43;;;3.30;99.90;;;;;;4378373;32;20210;-61
2021/04/08 04:21:20;;;;;;;5.90;2.00;;;3.30;99.90;;;;;;4377506;32;20164;-61
2021/04/08 04:23:46;;;;;;;5.80;1.67;;;3.30;99.90;;;;;;4376085;32;20208;-61
2021/04/08 04:26:15;;;;;;;3.83;2.00;;;3.30;99.90;;;;;;4379032;32;20198;-60
2021/04/08 04:28:42;;;;;;;6.87;1.83;;;3.30;99.90;;;;;;4376446;32;20164;-60
2021/04/08 04:31:11;;;;;;;5.73;1.40;;;3.30;99.90;;;;;;4376285;32;20198;-60
2021/04/08 04:33:37;;;;;;;4.23;1.73;;;3.20;99.90;;;;;;4376168;32;20148;-60
2021/04/08 04:36:04;;;;;;;4.53;1.53;;;3.10;99.90;;;;;;4379632;32;20243;-60
2021/04/08 04:38:34;;;;;;;5.83;2.10;;;3.00;99.90;;;;;;4390015;32;20194;-60
2021/04/08 04:41:00;;;;;;;5.77;1.50;;;2.90;99.90;;;;;;4376052;32;20263;-61
2021/04/08 04:43:26;;;;;;;4.50;1.50;;;2.70;99.90;;;;;;4376789;32;20227;-60
2021/04/08 04:45:53;;;;;;;7.70;1.23;;;2.60;99.90;;;;;;4378401;32;20209;-60
2021/04/08 04:48:20;;;;;;;8.60;1.57;;;2.50;99.90;;;;;;4391793;32;20149;-61
2021/04/08 04:50:46;;;;;;;10.90;1.83;;;2.40;99.90;;;;;;4381092;32;20176;-61
2021/04/08 04:53:13;;;;;;;6.03;1.80;;;2.30;99.90;;;;;;4375677;32;20174;-61
2021/04/08 04:55:40;;;;;;;3.57;1.57;;;2.30;99.90;;;;;;4383295;32;20167;-61
2021/04/08 04:58:06;;;;;;;2.20;1.67;;;2.20;99.90;;;;;;4394014;32;20167;-61
2021/04/08 05:00:32;;;;;;;5.23;2.40;;;2.20;99.90;;;;;;4376607;32;20215;-61
2021/04/08 05:02:59;;;;;;;7.83;2.43;;;2.10;99.90;;;;;;4377976;32;20157;-61
2021/04/08 05:05:25;;;;;;;7.83;2.23;;;2.10;99.90;;;;;;4376248;32;20251;-61
2021/04/08 05:07:51;;;;;;;7.77;2.47;;;2.00;99.90;;;;;;4377712;32;20247;-60
2021/04/08 05:10:18;;;;;;;7.90;2.40;;;2.00;99.90;;;;;;4376710;32;20603;-60
2021/04/08 05:12:45;;;;;;;7.90;2.50;;;2.00;99.90;;;;;;4375487;32;20148;-61
2021/04/08 05:15:12;;;;;;;7.60;3.13;;;2.00;99.90;;;;;;4376193;32;20560;-62
2021/04/08 05:17:38;;;;;;;7.70;3.00;;;2.00;99.90;;;;;;4380310;32;20159;-61
2021/04/08 05:20:06;;;;;;;9.93;2.80;;;2.00;99.90;;;;;;4381310;32;20168;-60
2021/04/08 05:22:32;;;;;;;11.63;3.30;;;2.00;99.90;;;;;;4383382;32;20301;-60
2021/04/08 05:24:59;;;;;;;7.23;2.90;;;2.00;99.90;;;;;;4382220;32;20231;-61
2021/04/08 05:27:26;;;;;;;7.80;3.30;;;2.10;99.90;;;;;;4382400;32;20152;-60
2021/04/08 05:29:54;;;;;;;4.63;3.27;;;2.10;99.90;;;;;;4381021;32;20204;-61
2021/04/08 05:32:20;;;;;;;7.40;3.33;;;2.10;99.90;;;;;;4374590;32;20179;-60
2021/04/08 05:34:50;;;;;;;9.30;3.67;;;2.10;99.90;;;;;;4381764;32;20164;-60
2021/04/08 05:37:17;;;;;;;11.10;3.23;;;2.10;99.90;;;;;;4382464;32;20592;-61
2021/04/08 05:39:43;;;;;;;7.87;3.00;;;2.20;99.90;;;;;;4379791;32;20180;-61
2021/04/08 05:42:10;;;;;;;7.67;3.37;;;2.30;99.90;;;;;;4380679;32;20577;-60
2021/04/08 05:44:36;;;;;;;9.50;2.90;;;2.30;99.90;;;;;;4381534;32;20168;-60
2021/04/08 05:47:04;;;;;;;12.33;3.53;;;2.40;99.90;;;;;;4378246;32;20180;-61
2021/04/08 05:49:31;;;;;;;8.30;3.07;;;2.70;99.90;;;;;;4377201;32;20561;-61
2021/04/08 05:51:57;;;;;;;10.67;3.20;;;3.00;99.90;;;;;;4381322;32;20166;-60
2021/04/08 05:54:23;;;;;;;6.53;2.80;;;3.40;99.90;;;;;;4381263;32;20186;-60
2021/04/08 05:57:09;;;;;;;6.60;2.77;;;3.60;99.90;;;;;;4382799;32;20259;-63
2021/04/08 05:59:35;;;;;;;6.87;2.70;;;3.90;99.50;;;;;;4379599;32;20214;-63
2021/04/08 06:02:09;;;;;;;11.17;2.67;;;4.00;98.90;;;;;;4382775;32;20163;-64
2021/04/08 06:04:35;;;;;;;8.87;3.13;;;4.10;98.30;;;;;;4380341;32;20235;-64
2021/04/08 06:07:02;;;;;;;9.93;2.30;;;4.20;97.80;;;;;;4383192;32;20346;-62
2021/04/08 06:09:30;;;;;;;10.53;2.47;;;4.30;97.60;;;;;;4378947;32;20662;-60
2021/04/08 06:11:56;;;;;;;5.80;2.40;;;4.30;97.50;;;;;;4380366;32;20572;-60
2021/04/08 06:14:24;;;;;;;8.10;2.63;;;4.30;97.30;;;;;;4380782;32;20168;-61
2021/04/08 06:16:50;;;;;;;14.00;3.00;;;4.30;97.20;;;;;;4384428;32;20207;-61
2021/04/08 06:19:17;;;;;;;7.07;3.20;;;4.30;97.20;;;;;;4382609;32;20161;-61
2021/04/08 06:21:44;;;;;;;6.30;3.00;;;4.40;97.30;;;;;;4380735;32;20224;-60
2021/04/08 06:24:11;;;;;;;9.20;3.93;;;4.50;97.00;;;;;;4381260;32;20337;-63
2021/04/08 06:26:37;;;;;;;9.80;3.27;;;4.70;96.60;;;;;;4383081;32;20159;-60
2021/04/08 06:29:04;;;;;;;7.07;3.27;;;4.90;95.90;;;;;;4388418;32;20168;-59
2021/04/08 06:31:30;;;;;;;8.53;3.00;;;5.00;95.80;;;;;;4387722;32;20252;-61
2021/04/08 06:33:58;;;;;;;5.23;3.00;;;5.10;95.00;;;;;;4387903;32;20165;-60
2021/04/08 06:36:25;;;;;;;8.77;2.70;;;5.40;94.80;;;;;;4383150;32;20250;-60
2021/04/08 06:38:51;;;;;;;5.97;2.83;;;5.60;94.20;;;;;;4383222;32;20141;-60
2021/04/08 06:41:18;;;;;;;5.00;3.10;;;5.70;93.30;;;;;;4380296;32;20140;-60
2021/04/08 06:43:46;;;;;;;9.00;3.10;;;6.00;93.50;;;;;;4379213;32;20179;-61
2021/04/08 06:46:16;;;;;;;6.13;2.63;;;6.20;92.60;;;;;;4380497;32;20529;-61
2021/04/08 06:48:46;;;;;;;7.37;2.93;;;6.50;92.00;;;;;;4382748;32;20418;-60
2021/04/08 06:51:17;;;;;;;8.73;2.67;;;6.80;91.20;;;;;;4378876;32;20306;-60
2021/04/08 06:53:45;;;;;;;5.73;2.50;;;6.90;90.30;;;;;;4379450;32;20223;-60
2021/04/08 06:56:11;;;;;;;4.30;2.60;;;7.00;90.00;;;;;;4378396;32;20222;-60
2021/04/08 06:58:41;;;;;;;8.57;2.77;;;6.90;86.80;;;;;;4384085;32;20179;-60
2021/04/08 07:01:08;;;;;;;7.63;2.70;;;6.90;87.40;;;;;;4380039;32;20564;-60
2021/04/08 07:03:36;;;;;;;4.73;2.50;;;7.10;88.90;;;;;;4383431;32;20175;-60
2021/04/08 07:06:04;;;;;;;6.80;2.57;;;7.20;88.20;;;;;;4383237;32;20151;-60
2021/04/08 07:08:31;;;;;;;5.57;2.60;;;7.30;88.10;;;;;;4374696;32;20253;-59
2021/04/08 07:10:59;;;;;;;6.83;2.63;;;7.30;87.40;;;;;;4343868;32;1164839;-61
2021/04/08 07:13:27;;;;;;;4.93;2.77;;;7.10;87.70;;;;;;4385130;32;20459;-60
2021/04/08 07:15:55;;;;;;;2.90;2.53;;;6.90;87.40;;;;;;4375292;32;20480;-61
2021/04/08 07:18:24;;;;;;;5.47;2.50;;;6.70;88.10;;;;;;4386010;32;20219;-60
2021/04/08 07:20:50;;;;;;;6.23;2.70;;;6.60;87.80;;;;;;4383303;32;20219;-60
2021/04/08 07:23:17;;;;;;;6.97;3.50;;;6.60;88.10;;;;;;4385196;32;20464;-63
2021/04/08 07:26:04;;;;;;;4.27;2.73;;;6.60;86.60;;;;;;4384746;32;20167;-60
2021/04/08 07:28:32;;;;;;;14.77;4.67;;;6.60;86.90;;;;;;4379828;32;20215;-60
2021/04/08 07:31:22;;;;;;;14.50;3.30;;;6.60;85.60;;;;;;4389352;32;20206;-62
2021/04/08 07:33:56;;;;;;;14.57;3.83;;;6.70;85.50;;;;;;4389310;32;20561;-60
2021/04/08 07:36:31;;;;;;;12.87;3.47;;;6.70;85.30;;;;;;4379561;32;20237;-61
2021/04/08 07:38:58;;;;;;;12.80;3.40;;;6.90;84.80;;;;;;4385873;32;20148;-61
2021/04/08 07:41:28;;;;;;;7.80;3.53;;;7.10;83.30;;;;;;4382250;32;20163;-61
2021/04/08 07:44:00;;;;;;;9.60;3.70;;;7.50;81.10;;;;;;4380587;32;20202;-60
2021/04/08 07:46:34;;;;;;;7.43;2.77;;;8.00;77.60;;;;;;4380949;32;20577;-62
2021/04/08 07:49:01;;;;;;;5.87;2.53;;;8.30;76.90;;;;;;4387022;32;20238;-61
2021/04/08 07:51:29;;;;;;;10.83;3.03;;;8.80;77.80;;;;;;4380046;32;20140;-62
2021/04/08 07:54:12;;;;;;;12.53;3.77;;;9.00;78.10;;;;;;4376874;32;20503;-61
2021/04/08 07:56:40;;;;;;;9.83;3.13;;;9.10;77.30;;;;;;4387252;32;20175;-61
2021/04/08 07:59:26;;;;;;;7.37;2.50;;;8.70;76.80;;;;;;4379255;32;20149;-60
2021/04/08 08:02:01;;;;;;;6.67;2.70;;;8.20;78.70;;;;;;4386058;32;20170;-60
2021/04/08 08:04:29;;;;;;;5.37;2.70;;;7.90;79.70;;;;;;4388780;32;20641;-59
2021/04/08 08:06:56;;;;;;;5.27;2.70;;;7.60;80.60;;;;;;4391603;32;20148;-60
2021/04/08 08:09:24;;;;;;;7.30;3.03;;;7.60;80.90;;;;;;4376818;32;20533;-62
2021/04/08 08:11:53;;;;;;;4.27;2.70;;;7.50;82.10;;;;;;4385081;32;20148;-59
2021/04/08 08:14:32;;;;;;;4.30;2.53;;;7.60;81.40;;;;;;4386386;32;20258;-63
2021/04/08 08:17:07;;;;;;;3.80;2.40;;;7.30;77.70;;;;;;4387426;32;20483;-60
2021/04/08 08:19:34;;;;;;;12.03;3.10;;;7.10;79.10;;;;;;4384623;32;20164;-59
2021/04/08 08:22:02;;;;;;;5.73;2.70;;;7.00;80.20;;;;;;4388980;32;20206;-61
2021/04/08 08:24:28;;;;;;;7.37;2.73;;;7.00;80.30;;;;;;4378307;32;20170;-60
2021/04/08 08:26:56;;;;;;;5.47;2.63;;;7.10;80.80;;;;;;4383278;32;20164;-61
2021/04/08 08:29:24;;;;;;;7.30;2.97;;;7.20;81.50;;;;;;4386668;32;20615;-59
2021/04/08 08:31:52;;;;;;;6.97;3.17;;;7.50;82.30;;;;;;4386754;32;20612;-64
2021/04/08 08:34:20;;;;;;;5.90;2.77;;;7.90;80.80;;;;;;4385255;32;20206;-60
2021/04/08 08:36:49;;;;;;;8.70;3.03;;;8.30;80.10;;;;;;4386748;32;20160;-63
2021/04/08 08:39:17;;;;;;;15.40;3.40;;;8.60;78.90;;;;;;4383943;32;20148;-60
2021/04/08 08:41:44;;;;;;;7.07;2.90;;;8.70;77.20;;;;;;4384054;32;20210;-61
2021/04/08 08:44:15;;;;;;;7.57;3.40;;;9.00;75.60;;;;;;4376210;32;20192;-61
2021/04/08 08:46:45;;;;;;;9.20;3.63;;;9.10;76.70;;;;;;4380420;32;20171;-61
2021/04/08 08:49:14;;;;;;;15.30;4.03;;;9.30;75.70;;;;;;4388235;32;20223;-60
2021/04/08 08:51:41;;;;;;;10.67;3.80;;;9.50;75.30;;;;;;4380797;32;20184;-59
2021/04/08 08:54:09;;;;;;;39.27;6.83;;;9.50;73.50;;;;;;4384686;32;20521;-60
2021/04/08 08:56:37;;;;;;;25.43;5.10;;;9.50;74.20;;;;;;4390359;32;20168;-61
2021/04/08 08:59:04;;;;;;;16.37;4.50;;;9.80;74.00;;;;;;4378311;32;20136;-61
2021/04/08 09:01:34;;;;;;;9.10;4.30;;;10.30;72.60;;;;;;4380260;32;20179;-59
2021/04/08 09:04:00;;;;;;;9.07;4.47;;;10.20;72.90;;;;;;4378145;32;20474;-62
2021/04/08 09:06:28;;;;;;;7.70;4.40;;;10.40;72.50;;;;;;4388492;32;20237;-62
2021/04/08 09:08:57;;;;;;;9.50;4.27;;;9.70;71.20;;;;;;4375943;32;20167;-62
2021/04/08 09:11:28;;;;;;;15.10;5.00;;;9.30;72.60;;;;;;4386215;32;20194;-61
2021/04/08 09:13:56;;;;;;;14.17;4.87;;;9.40;74.50;;;;;;4378014;32;20145;-63
2021/04/08 09:16:25;;;;;;;29.03;6.17;;;9.30;74.40;;;;;;4377907;32;20152;-59
2021/04/08 09:18:59;;;;;;;12.40;4.57;;;9.30;74.90;;;;;;4388413;32;20174;-61
2021/04/08 09:21:26;;;;;;;7.73;4.03;;;8.90;75.70;;;;;;4382024;32;20490;-60
2021/04/08 09:24:11;;;;;;;8.67;4.37;;;8.80;75.70;;;;;;4386380;32;20140;-60
2021/04/08 09:26:41;;;;;;;10.70;4.70;;;8.70;76.00;;;;;;4390337;32;20554;-65
2021/04/08 09:29:08;;;;;;;10.97;4.83;;;8.60;78.10;;;;;;4384095;32;20163;-60
2021/04/08 09:31:35;;;;;;;9.60;4.57;;;8.80;77.40;;;;;;4382850;32;20232;-62
2021/04/08 09:34:04;;;;;;;22.63;7.00;;;8.80;77.40;;;;;;4390001;32;20248;-64
2021/04/08 09:36:39;;;;;;;7.13;4.13;;;8.80;76.60;;;;;;4388294;32;20183;-60
2021/04/08 09:39:25;;;;;;;7.73;4.23;;;8.40;74.20;;;;;;4377819;32;20194;-59
2021/04/08 09:41:55;;;;;;;6.87;4.57;;;8.30;72.70;;;;;;4387058;32;20175;-59
2021/04/08 09:44:23;;;;;;;8.97;4.87;;;8.40;73.30;;;;;;4388276;32;20137;-60
2021/04/08 09:46:51;;;;;;;9.27;4.67;;;8.50;74.40;;;;;;4383042;32;20584;-63
2021/04/08 09:49:46;;;;;;;7.90;4.80;;;8.70;73.20;;;;;;4381168;32;20186;-60
2021/04/08 09:52:14;;;;;;;11.30;4.83;;;8.90;71.20;;;;;;4383078;32;20148;-61
2021/04/08 09:54:42;;;;;;;8.00;4.30;;;8.60;71.70;;;;;;4386320;32;20221;-61
2021/04/08 09:57:09;;;;;;;6.17;4.37;;;8.50;71.80;;;;;;4382118;32;20207;-62
2021/04/08 09:59:54;;;;;;;15.33;4.87;;;8.50;72.00;;;;;;4387258;32;20600;-60
2021/04/08 10:02:20;;;;;;;7.20;4.77;;;8.60;71.80;;;;;;4380862;32;20551;-62
2021/04/08 10:05:02;;;;;;;8.80;4.77;;;8.60;71.50;;;;;;4375256;32;20141;-62
2021/04/08 10:07:28;;;;;;;7.73;5.23;;;8.80;73.10;;;;;;4380446;32;20223;-61
2021/04/08 10:09:55;;;;;;;9.87;4.43;;;9.20;71.30;;;;;;4379778;32;20227;-60
2021/04/08 10:12:32;;;;;;;6.70;5.30;;;9.50;69.00;;;;;;4388271;32;20623;-61
2021/04/08 10:14:59;;;;;;;12.37;5.47;;;9.70;67.60;;;;;;4379287;32;20144;-60
2021/04/08 10:17:36;;;;;;;10.73;5.53;;;10.00;69.00;;;;;;4385776;32;20216;-63
2021/04/08 10:20:05;;;;;;;10.37;5.47;;;10.20;65.60;;;;;;4386883;32;20140;-60
2021/04/08 10:22:40;;;;;;;11.20;5.67;;;10.50;66.30;;;;;;4379469;32;20585;-63
2021/04/08 10:25:08;;;;;;;11.23;5.47;;;10.30;64.90;;;;;;4375353;32;20141;-64
2021/04/08 10:27:35;;;;;;;9.23;5.07;;;10.50;67.50;;;;;;4385287;32;20231;-61
2021/04/08 10:30:12;;;;;;;9.67;5.10;;;10.70;67.20;;;;;;4380772;32;20149;-64
2021/04/08 10:32:39;;;;;;;14.07;5.73;;;11.00;64.00;;;;;;4376114;32;20155;-62
2021/04/08 10:35:18;;;;;;;9.87;5.27;;;10.70;65.20;;;;;;4376874;32;20505;-65
2021/04/08 10:37:45;;;;;;;8.40;5.53;;;10.50;64.30;;;;;;4381443;32;20150;-61
2021/04/08 10:40:11;;;;;;;9.27;6.33;;;10.20;65.70;;;;;;4375659;32;20156;-62
2021/04/08 10:42:38;;;;;;;7.97;6.00;;;10.30;65.60;;;;;;4385484;32;20506;-61
2021/04/08 10:45:08;;;;;;;10.67;6.53;;;10.50;65.20;;;;;;4377520;32;20211;-64
2021/04/08 10:47:37;;;;;;;12.27;5.67;;;10.70;65.90;;;;;;4375563;32;20148;-62
2021/04/08 10:50:06;;;;;;;11.33;6.10;;;10.60;65.70;;;;;;4385439;32;20566;-64
2021/04/08 10:52:35;;;;;;;11.73;6.63;;;10.70;66.20;;;;;;4392644;32;20148;-61
2021/04/08 10:55:04;;;;;;;8.47;5.73;;;10.80;65.60;;;;;;4388695;32;20163;-61
2021/04/08 10:57:31;;;;;;;8.90;5.97;;;10.70;65.70;;;;;;4385596;32;20192;-61
2021/04/08 10:59:58;;;;;;;10.90;7.20;;;10.70;65.90;;;;;;4379154;32;20152;-60
2021/04/08 11:02:29;;;;;;;11.23;6.53;;;10.80;65.60;;;;;;4386529;32;20152;-62
2021/04/08 11:04:58;;;;;;;11.43;7.10;;;10.90;67.40;;;;;;4379605;32;20157;-61
2021/04/08 11:07:26;;;;;;;8.70;6.00;;;11.00;66.70;;;;;;4379176;32;20144;-64
2021/04/08 11:09:56;;;;;;;9.97;6.27;;;10.80;64.00;;;;;;4381658;32;20171;-62
2021/04/08 11:12:25;;;;;;;9.90;6.63;;;10.70;65.10;;;;;;4380957;32;20169;-62
2021/04/08 11:14:58;;;;;;;9.90;6.70;;;11.10;64.50;;;;;;4381439;32;20169;-64
2021/04/08 11:17:28;;;;;;;12.60;6.63;;;10.80;63.70;;;;;;4385834;32;20150;-63
2021/04/08 11:19:56;;;;;;;11.70;6.80;;;10.50;66.10;;;;;;4384065;32;20136;-62
2021/04/08 11:22:28;;;;;;;10.43;6.67;;;10.50;65.00;;;;;;4386062;32;20580;-61
2021/04/08 11:25:00;;;;;;;10.83;7.10;;;10.90;64.80;;;;;;4384582;32;20193;-60
2021/04/08 11:27:36;;;;;;;7.23;6.30;;;10.90;64.20;;;;;;4387447;32;20145;-63
2021/04/08 11:30:06;;;;;;;10.03;6.40;;;10.80;64.00;;;;;;4382918;32;20178;-61
2021/04/08 11:32:43;;;;;;;11.47;6.00;;;10.40;64.90;;;;;;4379794;32;20222;-61
2021/04/08 11:35:23;;;;;;;9.93;6.90;;;10.30;66.70;;;;;;4384244;32;20191;-61
2021/04/08 11:37:50;;;;;;;10.67;6.43;;;9.80;68.40;;;;;;4386203;32;20231;-62
2021/04/08 11:40:21;;;;;;;12.27;6.47;;;9.50;68.70;;;;;;4383401;32;20202;-63
2021/04/08 11:42:48;;;;;;;10.20;5.57;;;9.50;70.80;;;;;;4385000;32;20162;-62
2021/04/08 11:45:24;;;;;;;6.20;5.23;;;9.60;68.00;;;;;;4385811;32;20148;-64
2021/04/08 11:48:01;;;;;;;10.23;5.40;;;9.90;66.60;;;;;;4386700;32;20223;-65
2021/04/08 11:50:35;;;;;;;8.03;5.80;;;10.60;65.60;;;;;;4386146;32;20225;-62
2021/04/08 11:53:07;;;;;;;7.53;5.73;;;10.90;65.00;;;;;;4385406;32;20183;-62
2021/04/08 11:55:45;;;;;;;7.97;6.33;;;10.90;65.40;;;;;;4386135;32;20148;-61
2021/04/08 11:58:23;;;;;;;8.80;5.80;;;11.10;64.40;;;;;;4386162;32;20228;-62
2021/04/08 12:01:06;;;;;;;11.43;6.93;;;11.10;65.20;;;;;;4379631;32;20140;-60
2021/04/08 12:03:39;;;;;;;9.70;6.20;;;11.10;65.30;;;;;;4385742;32;20213;-63
2021/04/08 12:06:13;;;;;;;6.63;5.60;;;10.70;65.70;;;;;;4379578;32;20145;-60
2021/04/08 12:08:40;;;;;;;8.17;6.10;;;10.40;65.20;;;;;;4387474;32;20148;-64
2021/04/08 12:11:08;;;;;;;10.30;5.67;;;10.00;67.30;;;;;;4384583;32;20573;-62
2021/04/08 12:13:35;;;;;;;7.40;6.20;;;9.90;69.40;;;;;;4381794;32;20141;-61
2021/04/08 12:16:02;;;;;;;7.37;5.90;;;10.30;67.60;;;;;;4385298;32;20145;-63
2021/04/08 12:18:30;;;;;;;8.73;6.30;;;10.30;67.50;;;;;;4383696;32;20152;-62
2021/04/08 12:20:58;;;;;;;8.37;6.40;;;10.10;69.20;;;;;;4385626;32;20175;-60
2021/04/08 12:23:26;;;;;;;8.23;6.57;;;10.20;70.10;;;;;;4383017;32;20604;-61
2021/04/08 12:25:54;;;;;;;11.77;6.57;;;10.20;69.50;;;;;;4383804;32;20263;-62
2021/04/08 12:28:22;;;;;;;9.10;7.17;;;10.20;69.50;;;;;;4384032;32;20631;-62
2021/04/08 12:31:00;;;;;;;13.67;7.30;;;10.20;69.80;;;;;;4384720;32;21161;-61
2021/04/08 12:33:28;;;;;;;12.37;6.70;;;10.20;69.80;;;;;;4380326;32;20237;-61
2021/04/08 12:35:58;;;;;;;8.10;6.73;;;10.30;70.00;;;;;;4382476;32;20153;-62
2021/04/08 12:38:25;;;;;;;10.03;6.53;;;10.70;69.40;;;;;;4380369;32;20569;-62
2021/04/08 12:40:54;;;;;;;10.93;7.17;;;10.90;68.70;;;;;;4379770;32;21755;-63
2021/04/08 12:43:22;;;;;;;6.77;5.80;;;10.80;66.80;;;;;;4375971;32;20198;-63
2021/04/08 12:45:48;;;;;;;8.93;6.77;;;10.60;67.60;;;;;;4378422;32;20173;-60
2021/04/08 12:48:15;;;;;;;12.20;7.70;;;10.70;66.90;;;;;;4385179;32;20144;-61
2021/04/08 12:50:43;;;;;;;8.80;7.03;;;10.40;67.20;;;;;;4382368;32;20614;-61
2021/04/08 12:53:20;;;;;;;9.57;6.87;;;10.20;68.80;;;;;;4385328;32;20160;-64
2021/04/08 12:55:47;;;;;;;7.03;5.80;;;10.20;69.40;;;;;;4374273;32;20238;-61
2021/04/08 12:58:14;;;;;;;9.63;6.20;;;10.10;66.60;;;;;;4377369;32;20208;-65
2021/04/08 13:00:42;;;;;;;8.10;6.73;;;10.30;67.30;;;;;;4382282;32;20187;-64
2021/04/08 13:03:27;;;;;;;10.97;7.53;;;10.50;68.10;;;;;;4374068;32;20314;-63
2021/04/08 13:05:54;;;;;;;11.33;7.37;;;11.00;67.20;;;;;;4376628;32;20238;-61